Time;durP1;ratioP1;P1;durP2;ratioP2;P2;SDS_P1;SDS_P2;PMS_P1;PMS_P2;Temp;Humidity;BMP_temperature;BMP_pressure;BME280_temperature;BME280_humidity;BME280_pressure;Samples;Min_cycle;Max_cycle;Signal;HPM_P1;HPM_P2
2022/09/03 00:00:34;;;;;;;2.23;2.03;;;13.70;61.90;;;14.72;55.71;97745.94;5031482;28;20554;-85
2022/09/03 00:03:08;;;;;;;1.87;1.67;;;13.70;62.20;;;14.58;56.16;97731.84;5047065;28;20458;-82
2022/09/03 00:05:41;;;;;;;2.23;2.13;;;13.60;62.60;;;14.69;55.78;97732.81;5026896;28;20519;-84
2022/09/03 00:08:15;;;;;;;2.60;1.90;;;13.60;62.50;;;14.64;56.32;97740.06;5038385;28;20452;-82
2022/09/03 00:10:51;;;;;;;1.73;1.63;;;13.50;62.70;;;14.62;56.63;97742.22;5050030;28;20944;-84
2022/09/03 00:13:26;;;;;;;3.07;2.40;;;13.50;63.30;;;14.44;56.59;97709.59;5060733;28;20438;-77
2022/09/03 00:15:56;;;;;;;2.43;2.23;;;13.50;63.30;;;14.49;56.68;97738.75;5052326;28;20509;-77
2022/09/03 00:18:28;;;;;;;7.20;2.10;;;13.40;63.40;;;14.43;57.07;97746.00;5049576;28;20574;-79
2022/09/03 00:21:07;;;;;;;2.93;2.13;;;13.40;63.60;;;14.34;57.21;97736.63;5069064;28;21092;-77
2022/09/03 00:23:39;;;;;;;2.60;2.23;;;13.40;63.80;;;14.24;56.99;97720.16;5059468;28;20458;-83
2022/09/03 00:26:21;;;;;;;2.30;2.10;;;13.40;64.00;;;14.39;57.56;97750.31;5050794;28;20470;-84
2022/09/03 00:28:57;;;;;;;2.13;1.93;;;13.40;64.30;;;14.25;57.78;97743.53;5045963;28;20447;-86
2022/09/03 00:31:31;;;;;;;2.40;1.87;;;13.30;64.50;;;14.11;58.00;97737.63;5052977;28;20820;-85
2022/09/03 00:34:04;;;;;;;2.27;2.00;;;13.30;64.70;;;14.23;58.01;97742.97;5053436;28;20439;-82
2022/09/03 00:36:41;;;;;;;2.07;1.93;;;13.20;64.90;;;14.19;58.17;97730.94;5052626;28;20434;-85
2022/09/03 00:39:11;;;;;;;2.90;2.20;;;13.20;65.30;;;14.20;58.08;97729.88;5047533;28;20518;-84
2022/09/03 00:41:56;;;;;;;2.90;2.40;;;13.20;65.50;;;14.19;58.21;97730.94;5031705;28;20441;-81
2022/09/03 00:44:53;;;;;;;3.00;2.10;;;13.10;66.10;;;14.13;58.31;97733.56;5044730;28;20825;-82
2022/09/03 00:47:30;;;;;;;3.00;2.23;;;13.10;66.20;;;14.05;58.35;97723.13;5043088;28;20505;-78
2022/09/03 00:50:08;;;;;;;4.00;1.93;;;13.10;66.50;;;14.05;58.51;97733.97;5033439;28;20451;-80
2022/09/03 00:52:51;;;;;;;2.50;1.90;;;13.10;66.60;;;13.84;58.94;97733.59;5037458;28;20457;-80
2022/09/03 00:55:32;;;;;;;3.00;2.57;;;13.00;66.70;;;14.03;58.31;97725.25;5042810;28;20472;-80
2022/09/03 00:58:23;;;;;;;4.30;1.90;;;13.10;66.90;;;13.97;58.92;97745.22;5068775;28;20460;-79
2022/09/03 01:03:36;;;;;;;3.03;2.10;;;13.00;67.50;;;13.95;58.89;97725.66;6093556;22;21368;31
2022/09/03 01:06:18;;;;;;;3.07;2.10;;;12.90;67.90;;;14.00;59.05;97742.03;4979624;23;20496;-78
2022/09/03 01:09:11;;;;;;;2.63;2.10;;;12.90;68.10;;;13.85;59.34;97734.44;4972686;28;20560;-79
2022/09/03 01:11:54;;;;;;;2.50;2.30;;;12.80;68.40;;;13.75;59.69;97735.06;4969510;28;20461;-84
2022/09/03 01:14:38;;;;;;;3.13;2.83;;;12.80;68.60;;;13.72;59.73;97713.81;4970085;28;20496;-80
2022/09/03 01:17:19;;;;;;;2.50;2.03;;;12.80;69.10;;;13.88;59.22;97737.50;4953813;28;20497;-81
2022/09/03 01:20:11;;;;;;;2.83;2.30;;;12.80;69.10;;;13.97;59.53;97737.91;4955413;28;20474;-83
2022/09/03 01:23:23;;;;;;;2.20;2.00;;;12.90;69.40;;;13.74;59.72;97738.84;4968026;28;20461;-86
2022/09/03 01:26:04;;;;;;;2.70;2.43;;;12.70;69.50;;;13.48;60.44;97727.50;4972979;28;20479;-77
2022/09/03 01:28:55;;;;;;;2.30;2.10;;;12.70;69.70;;;13.62;60.22;97743.50;4962933;28;20518;-88
2022/09/03 01:31:35;;;;;;;2.87;1.93;;;12.60;70.10;;;13.68;60.29;97747.97;4965222;28;21125;-87
2022/09/03 01:34:16;;;;;;;2.90;2.20;;;12.60;70.40;;;13.72;60.13;97743.69;4970495;28;20460;-84
2022/09/03 01:36:52;;;;;;;2.60;2.40;;;12.60;70.50;;;13.74;60.07;97738.84;4970853;28;20477;-85
2022/09/03 01:39:33;;;;;;;1.90;1.80;;;12.60;70.90;;;13.48;60.81;97743.78;4966066;28;20481;-84
2022/09/03 01:42:15;;;;;;;3.53;3.07;;;12.60;71.20;;;13.60;60.70;97744.56;4968923;28;20468;-86
2022/09/03 01:45:20;;;;;;;2.50;2.10;;;12.50;71.30;;;13.58;60.45;97735.84;4973078;28;20544;-79
2022/09/03 01:48:11;;;;;;;2.63;2.10;;;12.50;71.60;;;13.35;61.28;97739.44;4970806;28;20485;-83
2022/09/03 01:50:46;;;;;;;2.17;2.07;;;12.50;71.70;;;13.41;61.34;97740.34;4971805;28;20622;-80
2022/09/03 01:53:34;;;;;;;4.27;2.30;;;12.50;72.10;;;13.49;60.96;97742.72;4974139;28;20439;-82
2022/09/03 01:56:25;;;;;;;3.20;2.30;;;12.50;72.30;;;13.54;60.71;97740.09;4978590;28;20464;-79
2022/09/03 01:59:02;;;;;;;2.90;2.70;;;12.50;72.40;;;13.44;61.55;97739.91;4961021;28;20776;-85
2022/09/03 02:01:37;;;;;;;2.10;2.00;;;12.40;72.80;;;13.46;61.60;97726.94;4977823;28;20469;-78
2022/09/03 02:04:17;;;;;;;5.63;2.53;;;12.40;73.60;;;13.48;61.37;97746.50;4958145;28;20474;-77
2022/09/03 02:06:47;;;;;;;2.30;2.10;;;12.40;73.40;;;13.55;61.03;97751.78;4956733;28;20464;-80
2022/09/03 02:09:15;;;;;;;2.43;2.30;;;12.30;73.70;;;13.38;62.43;97751.69;4977366;28;20512;-83
2022/09/03 02:11:45;;;;;;;3.80;2.43;;;12.20;74.70;;;13.43;61.90;97741.78;4973238;28;20461;-79
2022/09/03 02:14:13;;;;;;;2.60;2.40;;;12.20;75.00;;;13.21;62.00;97729.91;4954941;28;20584;-82
2022/09/03 02:16:43;;;;;;;2.57;2.40;;;12.30;74.90;;;13.45;62.43;97758.66;4971279;28;20449;-82
2022/09/03 02:19:15;;;;;;;2.73;2.50;;;12.30;75.40;;;13.25;62.21;97752.78;4967484;28;21172;-82
2022/09/03 02:21:50;;;;;;;4.97;2.40;;;12.30;75.10;;;13.18;62.22;97753.72;4966535;28;20468;-77
2022/09/03 02:24:17;;;;;;;3.03;2.70;;;12.20;75.00;;;13.00;62.71;97746.59;4949346;28;20464;-81
2022/09/03 02:26:45;;;;;;;2.70;2.50;;;12.30;75.00;;;13.20;62.29;97749.97;4969250;28;20467;-79
2022/09/03 02:29:16;;;;;;;2.97;2.40;;;12.20;75.00;;;13.23;62.57;97755.72;4976981;28;20543;-80
2022/09/03 02:31:45;;;;;;;2.63;2.43;;;12.20;75.20;;;13.03;62.85;97751.53;4962469;28;20472;-81
2022/09/03 02:34:12;;;;;;;2.73;2.20;;;12.20;75.20;;;13.00;62.95;97745.75;4980941;28;20480;-86
2022/09/03 02:36:45;;;;;;;2.47;2.27;;;12.10;75.20;;;12.57;63.11;97670.00;4983909;28;20460;-85
2022/09/03 02:39:13;;;;;;;2.70;2.47;;;12.10;75.80;;;13.09;62.64;97728.06;4976947;28;20480;-81
2022/09/03 02:41:41;;;;;;;2.63;2.40;;;12.10;75.90;;;13.18;63.00;97748.28;4972797;28;20463;-79
2022/09/03 02:44:13;;;;;;;3.60;2.33;;;12.10;76.00;;;13.23;62.74;97749.50;4952644;28;20458;-85
2022/09/03 02:46:49;;;;;;;4.70;2.67;;;12.10;76.10;;;13.10;63.49;97750.56;4965870;28;21321;-78
2022/09/03 02:49:17;;;;;;;3.33;2.33;;;12.10;76.10;;;13.17;62.98;97745.84;4973970;28;21194;-88
2022/09/03 02:51:45;;;;;;;1.97;1.87;;;12.10;76.50;;;13.03;63.14;97734.41;4953609;28;20825;-83
2022/09/03 02:54:13;;;;;;;2.83;2.63;;;12.10;76.60;;;13.07;63.86;97745.63;4970437;28;20469;-84
2022/09/03 02:56:41;;;;;;;2.93;2.73;;;12.00;76.60;;;13.06;63.45;97749.41;4969545;28;20471;-84
2022/09/03 02:59:09;;;;;;;2.87;2.67;;;12.10;76.60;;;13.16;63.27;97749.63;4967609;28;20492;-85
2022/09/03 03:01:37;;;;;;;3.03;2.73;;;12.10;76.90;;;13.07;63.44;97745.63;4962483;28;20469;-84
2022/09/03 03:04:05;;;;;;;2.63;2.30;;;12.10;77.00;;;13.03;63.92;97743.38;4969114;28;21015;-79
2022/09/03 03:06:33;;;;;;;1.90;1.80;;;12.10;77.10;;;13.02;63.56;97733.59;4970285;28;20524;-84
2022/09/03 03:09:00;;;;;;;3.13;2.83;;;12.10;76.90;;;13.09;63.48;97738.06;4972313;28;20474;-76
2022/09/03 03:11:29;;;;;;;2.97;2.63;;;12.10;76.80;;;13.04;63.62;97734.19;4969934;28;20475;-84
2022/09/03 03:13:56;;;;;;;2.80;2.60;;;12.10;77.00;;;12.88;64.22;97734.91;4969959;28;20484;-80
2022/09/03 03:16:23;;;;;;;2.90;2.70;;;12.00;77.00;;;12.95;63.51;97746.44;4969705;28;20982;-84
2022/09/03 03:18:51;;;;;;;2.40;2.27;;;12.00;77.00;;;12.81;64.12;97748.59;4967871;28;20557;-85
2022/09/03 03:21:20;;;;;;;2.50;2.30;;;12.00;77.00;;;12.85;64.12;97722.66;4972719;28;20492;-79
2022/09/03 03:23:47;;;;;;;4.13;2.37;;;12.00;77.30;;;12.82;63.92;97733.97;4971586;28;20474;-84
2022/09/03 03:26:19;;;;;;;3.10;2.87;;;11.90;77.40;;;12.88;63.54;97732.22;4970965;28;20456;-83
2022/09/03 03:28:47;;;;;;;2.97;2.77;;;11.90;77.50;;;12.81;64.11;97742.34;4971710;28;20468;-83
2022/09/03 03:31:18;;;;;;;2.60;2.40;;;11.90;77.60;;;12.85;64.16;97748.94;4977863;28;20471;-82
2022/09/03 03:33:51;;;;;;;2.80;2.60;;;11.90;77.50;;;12.77;64.53;97735.75;4963702;28;20462;-78
2022/09/03 03:36:21;;;;;;;2.83;2.63;;;11.80;77.70;;;12.25;64.34;97670.34;4987278;28;20536;-77
2022/09/03 03:38:48;;;;;;;2.70;2.50;;;11.80;77.60;;;12.75;64.44;97739.53;4990015;28;20483;-75
2022/09/03 03:41:18;;;;;;;2.50;2.30;;;11.80;78.20;;;12.68;64.33;97741.53;4970990;28;20534;-80
2022/09/03 03:43:45;;;;;;;2.40;2.20;;;11.70;77.90;;;12.72;64.17;97739.16;4968913;28;20448;-80
2022/09/03 03:46:13;;;;;;;5.17;2.87;;;11.70;77.80;;;12.61;64.87;97733.53;4977145;28;20848;-84
2022/09/03 03:48:41;;;;;;;4.00;2.40;;;11.70;77.90;;;12.57;64.68;97742.34;4961211;28;20494;-85
2022/09/03 03:51:10;;;;;;;4.93;2.63;;;11.70;78.00;;;12.46;65.34;97742.09;4972736;28;20481;-82
2022/09/03 03:53:39;;;;;;;2.80;2.60;;;11.70;78.00;;;12.59;64.91;97732.09;4969336;28;20462;-82
2022/09/03 03:56:10;;;;;;;2.57;2.37;;;11.70;78.10;;;12.47;65.16;97738.34;4964051;28;20461;-86
2022/09/03 03:58:43;;;;;;;3.17;2.50;;;11.70;78.20;;;12.60;65.16;97729.16;4976787;28;20459;-87
2022/09/03 04:01:13;;;;;;;2.50;2.40;;;11.70;78.60;;;12.69;64.62;97729.63;4958351;28;20492;-83
2022/09/03 04:03:42;;;;;;;4.70;3.10;;;11.70;78.50;;;12.32;65.60;97721.72;4971366;28;20464;-85
2022/09/03 04:06:11;;;;;;;3.27;2.60;;;11.60;78.40;;;12.34;65.90;97727.72;4955446;28;20474;-84
2022/09/03 04:08:42;;;;;;;2.97;2.67;;;11.60;78.50;;;12.49;65.52;97740.81;4967704;28;20531;-82
2022/09/03 04:11:15;;;;;;;2.83;2.63;;;11.60;78.60;;;11.69;66.00;97648.13;4980187;28;20461;-84
2022/09/03 04:13:44;;;;;;;4.17;2.37;;;11.60;78.70;;;12.15;66.45;97727.81;4971024;28;20837;-79
2022/09/03 04:16:14;;;;;;;2.93;2.73;;;11.50;78.90;;;12.08;66.28;97713.56;4975333;28;20461;-85
2022/09/03 04:18:42;;;;;;;3.17;2.97;;;11.50;79.30;;;12.41;65.82;97724.91;4967073;28;20470;-84
2022/09/03 04:21:11;;;;;;;2.93;2.73;;;11.50;79.00;;;12.53;65.52;97727.63;4972667;28;20475;-85
2022/09/03 04:23:42;;;;;;;2.60;2.40;;;11.60;79.20;;;12.41;65.48;97728.44;4968751;28;20461;-81
2022/09/03 04:26:12;;;;;;;3.13;2.83;;;11.60;79.00;;;12.45;65.87;97726.91;4958937;28;20468;-86
2022/09/03 04:28:40;;;;;;;2.50;2.30;;;11.60;79.30;;;12.51;65.33;97727.03;4991822;28;20963;-76
2022/09/03 04:31:11;;;;;;;2.83;2.63;;;11.60;79.00;;;12.43;65.78;97720.91;4980323;28;20449;-86
2022/09/03 04:33:39;;;;;;;3.03;2.83;;;11.70;79.10;;;12.51;65.70;97724.31;4964899;28;20454;-82
2022/09/03 04:36:09;;;;;;;3.10;2.80;;;11.70;79.00;;;12.55;65.30;97725.50;4970875;28;20472;-87
2022/09/03 04:38:40;;;;;;;2.80;2.60;;;11.70;78.90;;;12.63;65.08;97732.47;4952782;28;20463;-84
2022/09/03 04:41:10;;;;;;;5.60;2.80;;;11.70;78.80;;;12.43;65.59;97736.31;4962163;28;20543;-81
2022/09/03 04:43:38;;;;;;;3.17;2.93;;;11.80;78.70;;;12.56;65.36;97741.50;4945871;28;20765;-80
2022/09/03 04:46:07;;;;;;;3.13;2.83;;;11.80;78.60;;;12.52;64.74;97696.19;4953320;28;20452;-82
2022/09/03 04:48:37;;;;;;;5.30;3.13;;;11.90;78.80;;;12.95;64.20;97735.59;4962284;28;20464;-87
2022/09/03 04:51:07;;;;;;;3.27;2.57;;;11.90;78.60;;;12.89;64.05;97742.81;4975288;28;20468;-84
2022/09/03 04:53:35;;;;;;;4.13;3.10;;;12.00;78.40;;;13.18;63.22;97734.72;4950627;28;20453;-83
2022/09/03 04:56:12;;;;;;;2.80;2.60;;;12.20;78.10;;;13.07;63.16;97734.75;4969991;28;20453;-86
2022/09/03 04:58:40;;;;;;;2.13;1.93;;;12.40;77.20;;;12.67;63.11;97663.16;4948977;28;20944;-82
2022/09/03 05:01:09;;;;;;;2.77;2.53;;;12.50;77.10;;;13.59;62.05;97736.66;4953112;28;20588;-85
2022/09/03 05:03:37;;;;;;;2.90;2.67;;;12.80;76.70;;;14.01;60.34;97755.38;4967919;28;20461;-81
2022/09/03 05:06:06;;;;;;;3.30;2.43;;;13.10;75.70;;;14.45;59.21;97754.72;4976363;28;20461;-84
2022/09/03 05:08:35;;;;;;;3.97;2.57;;;13.50;75.10;;;14.62;57.75;97721.28;4970708;28;20507;-75
2022/09/03 05:11:05;;;;;;;4.20;2.80;;;14.00;73.90;;;15.13;57.01;97763.94;4971048;28;20474;-81
2022/09/03 05:13:34;;;;;;;3.67;2.60;;;14.40;72.80;;;15.08;56.91;97769.28;4958377;28;20516;-80
2022/09/03 05:16:02;;;;;;;2.97;2.67;;;14.20;72.50;;;14.57;58.35;97762.81;4966940;28;21191;-80
2022/09/03 05:18:30;;;;;;;4.73;2.60;;;13.90;72.60;;;14.30;58.72;97763.47;4959213;28;20591;-82
2022/09/03 05:21:01;;;;;;;2.70;2.50;;;13.60;73.00;;;13.94;60.11;97753.88;4972092;28;20477;-80
2022/09/03 05:23:30;;;;;;;4.77;2.97;;;13.30;73.80;;;13.88;60.54;97752.94;4954845;28;20469;-79
2022/09/03 05:25:58;;;;;;;2.77;2.57;;;13.10;74.40;;;13.82;60.94;97759.38;4943612;28;20587;-83
2022/09/03 05:28:29;;;;;;;3.10;2.73;;;13.00;74.80;;;13.98;60.68;97755.03;4942612;28;20576;-83
2022/09/03 05:31:00;;;;;;;3.40;3.10;;;13.10;74.80;;;13.87;61.06;97756.72;4960937;28;20581;-82
2022/09/03 05:33:28;;;;;;;6.40;2.97;;;13.00;75.00;;;13.86;60.92;97763.22;4941637;28;20469;-80
2022/09/03 05:36:01;;;;;;;3.07;2.80;;;13.00;75.00;;;13.90;61.12;97758.97;4958110;28;20458;-71
2022/09/03 05:38:29;;;;;;;2.63;2.50;;;13.00;75.30;;;13.55;61.55;97736.31;4963164;28;20457;-83
2022/09/03 05:41:00;;;;;;;3.63;3.10;;;12.90;75.50;;;13.90;61.27;97766.28;4965003;28;20538;-81
2022/09/03 05:43:29;;;;;;;8.00;3.03;;;12.90;75.60;;;14.12;60.47;97766.41;4968190;28;21316;-88
2022/09/03 05:46:00;;;;;;;3.40;2.73;;;13.10;75.50;;;13.93;60.86;97760.38;4972265;28;20468;-87
2022/09/03 05:48:28;;;;;;;3.10;2.67;;;13.10;75.20;;;13.91;61.06;97760.59;4978885;28;20464;-78
2022/09/03 05:51:06;;;;;;;3.43;2.67;;;13.10;75.30;;;14.01;60.89;97770.81;4956037;28;20515;-78
2022/09/03 05:53:37;;;;;;;4.07;2.90;;;13.00;75.30;;;13.84;61.21;97771.63;4968921;28;21001;-73
2022/09/03 05:56:09;;;;;;;5.00;2.40;;;13.10;75.30;;;13.55;61.11;97713.78;4968782;28;20462;-83
2022/09/03 05:58:42;;;;;;;9.00;3.20;;;13.10;75.30;;;14.27;60.32;97771.28;4978673;28;20451;-86
2022/09/03 06:01:14;;;;;;;3.20;2.70;;;13.20;75.20;;;14.30;59.84;97762.63;4971850;28;20470;-76
2022/09/03 06:03:42;;;;;;;3.30;2.63;;;13.40;75.00;;;14.44;59.87;97772.13;4977265;28;20584;-84
2022/09/03 06:06:10;;;;;;;6.73;2.90;;;13.40;74.70;;;14.60;59.17;97766.91;4960720;28;20469;-77
2022/09/03 06:08:38;;;;;;;2.73;2.53;;;13.50;74.60;;;14.87;58.32;97777.16;4962709;28;20531;-75
2022/09/03 06:11:06;;;;;;;4.17;2.93;;;13.70;74.40;;;14.84;58.57;97775.75;4963295;28;20456;-73
2022/09/03 06:13:35;;;;;;;3.30;2.73;;;13.80;73.90;;;14.85;58.62;97768.44;4961312;28;20457;-83
2022/09/03 06:16:06;;;;;;;2.97;2.67;;;13.90;73.90;;;14.85;58.32;97773.88;4971035;28;20471;-83
2022/09/03 06:18:34;;;;;;;2.60;2.40;;;14.00;73.60;;;14.94;57.97;97779.69;4953959;28;20489;-77
2022/09/03 06:21:05;;;;;;;3.00;2.50;;;14.00;73.70;;;14.67;58.78;97777.63;4966942;28;20486;-74
2022/09/03 06:23:34;;;;;;;2.80;2.60;;;13.90;73.40;;;14.53;59.00;97769.81;4963811;28;20469;-75
2022/09/03 06:26:04;;;;;;;3.20;2.90;;;13.80;73.50;;;14.74;58.89;97778.34;4970011;28;20463;-73
2022/09/03 06:28:33;;;;;;;2.83;2.63;;;13.90;73.50;;;14.78;58.31;97789.50;4947545;28;20462;-72
2022/09/03 06:31:01;;;;;;;2.43;2.10;;;14.00;73.30;;;15.00;57.84;97787.69;4961222;28;20466;-75
2022/09/03 06:33:30;;;;;;;3.60;3.33;;;14.10;73.10;;;14.88;58.43;97773.34;4959651;28;20554;-76
2022/09/03 06:35:58;;;;;;;4.47;2.90;;;14.10;73.40;;;15.22;57.56;97778.72;4956598;28;20493;-78
2022/09/03 06:38:28;;;;;;;2.87;2.50;;;14.40;73.10;;;15.40;57.17;97779.53;4959646;28;20547;-76
2022/09/03 06:41:00;;;;;;;2.53;2.23;;;14.60;72.80;;;15.81;55.90;97777.25;4958282;28;20569;-79
2022/09/03 06:43:29;;;;;;;4.67;2.53;;;14.90;72.20;;;15.90;55.48;97776.84;4954019;28;20500;-77
2022/09/03 06:45:58;;;;;;;2.63;2.43;;;15.00;71.70;;;15.86;55.63;97771.88;4962561;28;20471;-77
2022/09/03 06:48:26;;;;;;;3.40;2.53;;;15.00;71.40;;;15.68;56.44;97772.22;4957879;28;20470;-77
2022/09/03 06:50:57;;;;;;;2.60;2.40;;;14.80;71.60;;;15.71;56.45;97786.16;4962481;28;21146;-77
2022/09/03 06:53:26;;;;;;;2.83;2.40;;;14.90;71.50;;;16.10;54.95;97787.16;4962050;28;20970;-76
2022/09/03 06:55:55;;;;;;;2.40;2.30;;;15.10;71.10;;;16.79;53.42;97791.00;4959953;28;21058;-76
2022/09/03 06:58:24;;;;;;;2.50;2.30;;;15.60;70.70;;;16.37;54.63;97781.66;4972693;28;20544;-78
2022/09/03 07:00:52;;;;;;;3.70;2.97;;;15.50;70.20;;;16.56;54.03;97770.38;4968246;28;20478;-76
2022/09/03 07:03:20;;;;;;;3.70;2.67;;;15.70;70.20;;;16.81;53.19;97768.91;4969521;28;20550;-76
2022/09/03 07:05:48;;;;;;;4.50;3.00;;;15.80;69.80;;;16.47;54.31;97763.75;4954440;28;20471;-76
2022/09/03 07:08:17;;;;;;;2.80;2.47;;;15.70;69.70;;;16.56;54.21;97760.28;4971140;28;20462;-77
2022/09/03 07:10:47;;;;;;;2.67;2.47;;;15.60;69.90;;;16.39;55.04;97757.69;4973907;28;20482;-78
2022/09/03 07:13:15;;;;;;;3.30;2.63;;;15.60;70.00;;;16.61;54.46;97754.06;4966810;28;21132;-76
2022/09/03 07:15:42;;;;;;;2.80;2.40;;;15.70;70.10;;;16.75;53.96;97751.69;4942894;28;20476;-74
2022/09/03 07:18:12;;;;;;;2.60;2.40;;;15.80;69.80;;;16.54;54.48;97764.34;4958526;28;20508;-78
2022/09/03 07:20:40;;;;;;;3.40;2.17;;;15.70;69.50;;;16.56;54.52;97759.47;4942481;28;20557;-75
2022/09/03 07:23:07;;;;;;;2.60;1.97;;;15.80;70.00;;;16.62;54.32;97752.97;4944646;28;20540;-76
2022/09/03 07:25:35;;;;;;;2.47;2.27;;;15.80;69.70;;;17.17;53.45;97755.50;4943751;28;20468;-76
2022/09/03 07:28:06;;;;;;;3.47;2.67;;;16.00;69.70;;;17.66;51.87;97753.53;4960558;28;20482;-77
2022/09/03 07:30:33;;;;;;;3.03;2.10;;;16.40;68.90;;;17.50;52.05;97758.94;4958277;28;21030;-74
2022/09/03 07:33:03;;;;;;;4.53;2.37;;;16.60;68.20;;;17.78;51.61;97765.03;4960925;28;20466;-74
2022/09/03 07:35:30;;;;;;;6.20;2.40;;;16.70;68.20;;;18.12;50.63;97764.63;4959920;28;20560;-76
2022/09/03 07:37:58;;;;;;;2.50;1.90;;;17.10;67.50;;;18.43;50.12;97772.03;4960265;28;20475;-74
2022/09/03 07:40:25;;;;;;;3.33;2.20;;;17.40;67.30;;;18.65;49.70;97779.94;4947671;28;20523;-77
2022/09/03 07:43:03;;;;;;;2.17;1.97;;;17.50;66.80;;;19.18;48.34;97773.31;4960732;28;20463;-77
2022/09/03 07:45:32;;;;;;;8.70;2.37;;;17.80;66.20;;;19.47;47.44;97764.47;4964706;28;20459;-76
2022/09/03 07:47:59;;;;;;;2.80;2.07;;;18.30;65.40;;;19.43;47.58;97768.06;4963707;28;21020;-74
2022/09/03 07:50:29;;;;;;;3.13;2.40;;;18.30;64.90;;;19.34;48.07;97765.88;4961249;28;21002;-75
2022/09/03 07:52:58;;;;;;;4.60;2.27;;;18.30;64.80;;;18.97;48.45;97761.59;4963677;28;20568;-76
2022/09/03 07:55:27;;;;;;;3.20;2.50;;;18.30;64.30;;;19.11;48.17;97756.38;4965217;28;20471;-74
2022/09/03 07:57:58;;;;;;;2.07;1.87;;;18.20;64.10;;;19.05;48.20;97706.28;4961917;28;20891;-76
2022/09/03 08:00:25;;;;;;;3.63;2.47;;;18.40;64.70;;;18.92;49.02;97762.41;4953518;28;20460;-75
2022/09/03 08:02:53;;;;;;;3.00;2.00;;;18.20;64.30;;;18.66;49.43;97762.44;4955548;28;20511;-73
2022/09/03 08:05:20;;;;;;;3.00;2.20;;;17.90;64.10;;;18.51;50.16;97770.66;4973239;28;20484;-75
2022/09/03 08:07:48;;;;;;;2.40;2.20;;;17.80;65.00;;;18.45;50.27;97766.28;4943230;28;20461;-77
2022/09/03 08:10:16;;;;;;;2.40;2.17;;;17.70;65.00;;;18.69;49.96;97770.09;4963285;28;20505;-75
2022/09/03 08:12:43;;;;;;;2.17;1.97;;;17.70;65.10;;;18.96;49.31;97766.22;4963585;28;20544;-73
2022/09/03 08:15:12;;;;;;;2.67;2.20;;;17.90;65.20;;;19.01;48.63;97759.13;4960057;28;20520;-74
2022/09/03 08:17:45;;;;;;;6.03;1.87;;;18.00;64.60;;;19.08;48.41;97746.00;4943919;28;20468;-73
2022/09/03 08:20:13;;;;;;;2.60;1.90;;;18.00;64.40;;;19.34;48.20;97743.97;4944404;28;20523;-76
2022/09/03 08:22:40;;;;;;;3.80;2.50;;;18.20;64.30;;;19.64;48.02;97746.88;4944015;28;20477;-74
2022/09/03 08:25:09;;;;;;;4.07;2.20;;;18.40;64.50;;;19.63;46.97;97743.31;4962249;28;20621;-75
2022/09/03 08:27:36;;;;;;;3.87;2.20;;;18.70;63.10;;;20.05;46.84;97749.41;4961798;28;20480;-76
2022/09/03 08:30:03;;;;;;;4.70;2.00;;;18.80;63.30;;;19.52;46.05;97742.53;4958985;28;20820;-75
2022/09/03 08:32:34;;;;;;;4.20;2.30;;;18.80;61.40;;;20.22;45.72;97760.00;4943915;28;20452;-75
2022/09/03 08:35:02;;;;;;;2.20;2.00;;;19.00;62.40;;;20.45;44.52;97743.09;4942942;28;20460;-76
2022/09/03 08:37:29;;;;;;;1.97;1.80;;;19.40;61.50;;;21.08;44.33;97753.25;4964110;28;20452;-76
2022/09/03 08:39:56;;;;;;;5.00;1.90;;;19.80;61.50;;;20.71;43.63;97748.38;4965396;28;20472;-75
2022/09/03 08:42:39;;;;;;;4.20;2.23;;;19.80;59.80;;;20.80;43.36;97754.84;4952865;28;20814;-78
2022/09/03 08:45:10;;;;;;;3.03;1.70;;;19.90;59.60;;;20.53;43.46;97762.50;4961001;28;21038;-75
2022/09/03 08:47:43;;;;;;;2.37;2.17;;;19.70;58.90;;;20.73;43.51;97757.94;4967943;28;20563;-75
2022/09/03 08:50:18;;;;;;;2.17;1.97;;;19.70;59.10;;;21.16;42.96;97756.44;4967390;28;20477;-75
2022/09/03 08:52:50;;;;;;;2.47;2.10;;;20.00;59.10;;;20.97;42.55;97753.63;4967424;28;20528;-76
2022/09/03 08:55:24;;;;;;;4.23;2.00;;;20.20;58.30;;;21.25;43.16;97748.38;4962827;28;20483;-75
2022/09/03 08:58:04;;;;;;;1.97;1.87;;;20.10;59.00;;;21.16;42.67;97750.94;4943244;28;20457;-77
2022/09/03 09:00:47;;;;;;;3.60;2.00;;;20.20;58.50;;;21.41;43.06;97746.28;4961858;28;20560;-76
2022/09/03 09:03:35;;;;;;;2.40;2.10;;;20.10;59.00;;;21.17;43.00;97747.94;4960454;28;20536;-76
2022/09/03 09:06:13;;;;;;;4.30;2.10;;;20.10;58.50;;;20.71;43.38;97753.84;4964769;28;21010;-75
2022/09/03 09:08:53;;;;;;;3.23;2.03;;;19.90;58.10;;;20.76;43.85;97748.31;4958627;28;20467;-77
2022/09/03 09:11:37;;;;;;;2.87;2.00;;;19.70;58.40;;;20.60;43.94;97745.69;4958626;28;20884;-86
2022/09/03 09:14:13;;;;;;;3.07;2.00;;;19.60;58.50;;;20.84;43.86;97747.69;4963205;28;20608;-82
2022/09/03 09:16:48;;;;;;;2.07;1.87;;;19.60;58.80;;;20.92;43.58;97752.56;4960063;28;20463;-80
2022/09/03 09:19:41;;;;;;;4.70;2.53;;;19.80;58.60;;;21.19;43.33;97745.69;4963586;28;20464;-76
2022/09/03 09:22:14;;;;;;;4.27;2.10;;;20.00;59.20;;;21.35;42.75;97740.03;4954156;28;20515;-77
2022/09/03 09:24:46;;;;;;;2.20;1.80;;;20.20;58.20;;;21.64;42.20;97744.63;4966574;28;20493;-76
2022/09/03 09:27:16;;;;;;;2.23;2.03;;;20.50;58.30;;;21.12;43.00;97739.72;4956469;28;20521;-75
2022/09/03 09:29:49;;;;;;;2.50;2.30;;;20.40;57.80;;;21.26;43.20;97733.53;4960197;28;20551;-77
2022/09/03 09:32:19;;;;;;;4.47;4.07;;;20.30;58.10;;;21.40;43.41;97722.66;4959705;28;20452;-76
2022/09/03 09:34:47;;;;;;;3.73;2.50;;;20.20;58.30;;;21.83;42.71;97713.59;4955774;28;20461;-75
2022/09/03 09:37:17;;;;;;;2.43;2.23;;;20.50;58.50;;;21.82;42.18;97714.72;4954943;28;20487;-76
2022/09/03 09:39:56;;;;;;;3.23;2.27;;;20.70;57.90;;;21.78;42.49;97709.81;4962425;28;20465;-76
2022/09/03 09:42:24;;;;;;;2.80;2.20;;;20.70;58.10;;;21.60;43.01;97705.06;4957635;28;20485;-77
2022/09/03 09:44:52;;;;;;;2.50;1.97;;;20.60;58.10;;;21.55;43.01;97702.41;4956368;28;20480;-77
2022/09/03 09:47:25;;;;;;;3.07;2.17;;;20.60;58.20;;;20.92;44.39;97691.34;4958103;28;20470;-74
2022/09/03 09:49:56;;;;;;;5.27;2.13;;;20.30;58.20;;;21.30;43.61;97716.19;4968066;28;20523;-75
2022/09/03 09:52:27;;;;;;;2.33;2.13;;;20.30;58.10;;;21.45;43.28;97709.66;4957683;28;20486;-78
2022/09/03 09:55:08;;;;;;;2.00;1.90;;;20.40;58.10;;;21.48;42.98;97705.50;4957242;28;20680;-78
2022/09/03 09:57:36;;;;;;;2.13;1.87;;;20.50;57.80;;;21.81;42.51;97705.63;4960300;28;20474;-78
2022/09/03 10:00:09;;;;;;;4.13;2.27;;;20.70;58.00;;;21.52;42.54;97699.13;4960503;28;21152;-76
2022/09/03 10:02:40;;;;;;;2.73;2.20;;;20.80;57.50;;;21.37;42.99;97715.81;4959387;28;20490;-76
2022/09/03 10:05:23;;;;;;;2.37;1.77;;;20.60;57.20;;;21.70;42.72;97702.22;4959610;28;20634;-78
2022/09/03 10:07:58;;;;;;;4.13;2.37;;;20.70;57.70;;;21.66;42.71;97709.44;4956595;28;20467;-77
2022/09/03 10:10:26;;;;;;;5.37;2.80;;;20.70;57.40;;;21.67;42.45;97691.81;4969093;28;20474;-78
2022/09/03 10:13:00;;;;;;;3.77;3.40;;;20.70;57.50;;;22.06;42.25;97700.88;4947703;28;20468;-76
2022/09/03 10:15:35;;;;;;;4.77;2.50;;;20.80;57.70;;;21.97;42.22;97703.50;4967083;28;20466;-77
2022/09/03 10:18:09;;;;;;;2.70;1.80;;;20.90;57.50;;;21.95;41.51;97702.97;4979632;28;20468;-77
2022/09/03 10:20:46;;;;;;;2.13;2.00;;;21.00;57.00;;;22.07;42.30;97697.84;4975791;28;20494;-77
2022/09/03 10:23:18;;;;;;;2.70;2.30;;;21.00;57.50;;;21.99;42.45;97701.25;4985689;28;20502;-74
2022/09/03 10:26:05;;;;;;;2.97;2.40;;;21.00;57.50;;;22.47;42.17;97707.66;4986755;28;20464;-75
2022/09/03 10:28:39;;;;;;;5.00;2.03;;;21.20;57.80;;;22.38;42.17;97701.22;4984017;28;20480;-80
2022/09/03 10:31:36;;;;;;;3.30;1.87;;;21.30;57.60;;;22.39;42.27;97697.34;4955740;28;20464;-79
2022/09/03 10:34:10;;;;;;;3.57;2.13;;;21.40;57.50;;;22.80;41.48;97693.88;4963941;28;20544;-77
2022/09/03 10:36:47;;;;;;;2.30;2.10;;;21.60;57.60;;;22.55;42.30;97693.25;4950855;28;20463;-80
2022/09/03 10:39:22;;;;;;;3.50;2.30;;;21.60;57.50;;;22.55;41.87;97690.50;4967743;28;20456;-74
2022/09/03 10:42:05;;;;;;;3.20;2.17;;;21.50;57.20;;;22.75;41.46;97685.72;4965505;28;20479;-81
2022/09/03 10:44:54;;;;;;;2.87;2.30;;;21.70;57.30;;;22.62;42.01;97690.09;4963621;28;20469;-80